Terminal Aerodrome Forecast
Issued by NWS

Home | Current Version | Previous Version | Text Only | Print | Product List | Glossary On
Versions: 1 2 3 4 5 6 7 8 9 10 11 12
220
FTUS46 KSGX 160520
TAFCRQ
TAF
KCRQ 160520Z 1606/1706 VRB03KT P6SM BKN250
     FM161400 14006KT P6SM BKN012
     FM161900 19006KT P6SM SCT018
     FM162300 17005KT P6SM BKN018
     FM170500 VRB03KT P6SM SKC=

USA.gov is the U.S. government's official web portal to all federal, state and local government web resources and services.